createdAt,value
2024-05-09T00:00:59.896Z,100307.45
2024-05-09T00:03:42.725Z,100298.25
2024-05-09T00:06:11.103Z,100301.61
2024-05-09T00:08:39.576Z,100293.69
2024-05-09T00:11:08.009Z,100294.20
2024-05-09T00:13:36.078Z,100291.35
2024-05-09T00:16:04.553Z,100291.15
2024-05-09T00:18:33.421Z,100296.34
2024-05-09T00:21:04.912Z,100295.58
2024-05-09T00:23:33.360Z,100287.46
2024-05-09T00:26:01.500Z,100290.83
2024-05-09T00:28:29.780Z,100292.10
2024-05-09T00:30:57.907Z,100289.96
2024-05-09T00:33:26.390Z,100289.38
2024-05-09T00:35:54.906Z,100295.18
2024-05-09T00:38:22.975Z,100292.70
2024-05-09T00:40:51.236Z,100295.71
2024-05-09T00:43:19.558Z,100288.82
2024-05-09T00:45:48.644Z,100293.48
2024-05-09T00:48:19.804Z,100290.98
2024-05-09T00:50:50.264Z,100290.91
2024-05-09T00:53:19.252Z,100288.05
2024-05-09T00:55:47.897Z,100288.37
2024-05-09T00:58:20.125Z,100287.05
2024-05-09T01:00:50.388Z,100285.89
2024-05-09T01:03:19.117Z,100284.70
2024-05-09T01:05:47.750Z,100281.21
2024-05-09T01:08:15.974Z,100274.91
2024-05-09T01:10:46.162Z,100278.04
2024-05-09T01:13:16.268Z,100277.17
2024-05-09T01:15:44.424Z,100273.69
2024-05-09T01:18:13.867Z,100272.47
2024-05-09T01:20:44.662Z,100273.83
2024-05-09T01:23:15.650Z,100275.99
2024-05-09T01:25:46.407Z,100274.76
2024-05-09T01:28:16.117Z,100275.97
2024-05-09T01:30:44.488Z,100279.69
2024-05-09T01:33:13.422Z,100278.74
2024-05-09T01:35:42.886Z,100279.55
2024-05-09T01:38:14.054Z,100277.22
2024-05-09T01:40:43.686Z,100274.07
2024-05-09T01:43:12.317Z,100273.81
2024-05-09T01:45:41.495Z,100276.98
2024-05-09T01:48:10.992Z,100273.52
2024-05-09T01:50:42.429Z,100273.05
2024-05-09T01:53:14.693Z,100275.77
2024-05-09T01:55:44.348Z,100276.16
2024-05-09T01:58:13.211Z,100278.27
2024-05-09T02:00:43.099Z,100275.60
2024-05-09T02:03:16.320Z,100276.36
2024-05-09T02:05:50.041Z,100275.95
2024-05-09T02:08:21.539Z,100279.98
2024-05-09T02:10:50.788Z,100273.69
2024-05-09T02:13:19.422Z,100277.60
2024-05-09T02:15:47.420Z,100277.61
2024-05-09T02:18:15.641Z,100277.74
2024-05-09T02:20:44.317Z,100272.19
2024-05-09T02:23:13.782Z,100279.37
2024-05-09T02:25:42.262Z,100279.61
2024-05-09T02:28:10.472Z,100282.85
2024-05-09T02:30:41.297Z,100278.80
2024-05-09T02:33:12.665Z,100282.62
2024-05-09T02:35:44.094Z,100285.77
2024-05-09T02:38:13.561Z,100282.34
2024-05-09T02:40:42.160Z,100286.80
2024-05-09T02:43:12.907Z,100286.13
2024-05-09T02:45:41.725Z,100276.73
2024-05-09T02:48:12.451Z,100285.69
2024-05-09T02:50:42.074Z,100287.16
2024-05-09T02:53:14.444Z,100286.82
2024-05-09T02:55:43.544Z,100282.55
2024-05-09T02:58:12.393Z,100280.13
2024-05-09T03:00:42.415Z,100285.59
2024-05-09T03:03:14.283Z,100285.05
2024-05-09T03:05:46.492Z,100280.07
2024-05-09T03:08:15.377Z,100294.65
2024-05-09T03:10:43.620Z,100300.23
2024-05-09T03:13:15.391Z,100299.56
2024-05-09T03:15:45.171Z,100298.20
2024-05-09T03:18:13.920Z,100299.02
2024-05-09T03:20:44.001Z,100304.05
2024-05-09T03:23:12.638Z,100301.96
2024-05-09T03:25:41.013Z,100299.92
2024-05-09T03:28:09.202Z,100295.58
2024-05-09T03:30:41.908Z,100303.04
2024-05-09T03:33:18.696Z,100305.46
2024-05-09T03:35:49.103Z,100304.33
2024-05-09T03:38:18.210Z,100298.59
2024-05-09T03:40:50.697Z,100305.30
2024-05-09T03:43:20.149Z,100307.91
2024-05-09T03:45:50.394Z,100309.61
2024-05-09T03:48:18.727Z,100311.66
2024-05-09T03:50:47.247Z,100316.75
2024-05-09T03:53:15.542Z,100319.19
2024-05-09T03:55:44.052Z,100323.85
2024-05-09T03:58:14.262Z,100324.48
2024-05-09T04:00:43.067Z,100320.45
2024-05-09T04:03:12.790Z,100327.07
2024-05-09T04:05:43.774Z,100323.70
2024-05-09T04:08:15.812Z,100330.58
2024-05-09T04:10:44.404Z,100330.34
2024-05-09T04:13:12.786Z,100325.79
2024-05-09T04:15:40.851Z,100331.35
2024-05-09T04:18:09.226Z,100316.69
2024-05-09T04:20:40.131Z,100334.30
2024-05-09T04:23:14.570Z,100322.97
2024-05-09T04:25:45.080Z,100317.14
2024-05-09T04:28:14.234Z,100322.88
2024-05-09T04:30:43.194Z,100328.30
2024-05-09T04:33:13.518Z,100329.16
2024-05-09T04:35:43.777Z,100318.16
2024-05-09T04:38:14.259Z,100327.54
2024-05-09T04:40:43.447Z,100331.54
2024-05-09T04:43:17.261Z,100329.45
2024-05-09T04:45:46.412Z,100332.26
2024-05-09T04:48:16.387Z,100336.94
2024-05-09T04:50:45.037Z,100339.83
2024-05-09T04:53:16.770Z,100338.47
2024-05-09T04:55:45.649Z,100338.92
2024-05-09T04:58:13.895Z,100336.85
2024-05-09T05:00:44.023Z,100340.62
2024-05-09T05:03:14.806Z,100335.73
2024-05-09T05:05:46.554Z,100337.34
2024-05-09T05:08:17.296Z,100344.57
2024-05-09T05:10:48.647Z,100350.48
2024-05-09T05:13:21.668Z,100349.74
2024-05-09T05:15:55.423Z,100350.02
2024-05-09T05:18:24.954Z,100356.54
2024-05-09T05:20:54.897Z,100357.67
2024-05-09T05:23:31.878Z,100354.52
2024-05-09T05:26:00.454Z,100356.04
2024-05-09T05:28:28.670Z,100358.55
2024-05-09T05:30:56.858Z,100364.96
2024-05-09T05:33:25.234Z,100363.93
2024-05-09T05:35:53.656Z,100357.02
2024-05-09T05:38:25.049Z,100357.85
2024-05-09T05:40:56.069Z,100365.52
2024-05-09T05:43:24.542Z,100353.73
2024-05-09T05:45:52.918Z,100366.78
2024-05-09T05:48:25.088Z,100362.16
2024-05-09T05:50:53.326Z,100367.06
2024-05-09T05:53:21.667Z,100360.60
2024-05-09T05:55:50.070Z,100363.52
2024-05-09T05:58:20.052Z,100367.40
2024-05-09T06:00:48.443Z,100360.20
2024-05-09T06:03:16.964Z,100373.33
2024-05-09T06:05:48.149Z,100367.37
2024-05-09T06:08:16.516Z,100375.13
2024-05-09T06:10:45.146Z,100376.71
2024-05-09T06:13:14.376Z,100373.89
2024-05-09T06:15:43.889Z,100368.27
2024-05-09T06:18:14.870Z,100366.40
2024-05-09T06:20:44.157Z,100370.89
2024-05-09T06:23:14.355Z,100372.61
2024-05-09T06:25:43.791Z,100372.08
2024-05-09T06:28:12.013Z,100368.14
2024-05-09T06:30:42.260Z,100368.59
2024-05-09T06:33:14.163Z,100373.48
2024-05-09T06:35:46.158Z,100372.25
2024-05-09T06:38:14.646Z,100361.74
2024-05-09T06:40:44.136Z,100372.23
2024-05-09T06:43:16.953Z,100369.65
2024-05-09T06:45:49.209Z,100370.64
2024-05-09T06:48:22.185Z,100363.04
2024-05-09T06:50:51.135Z,100369.59
2024-05-09T06:53:25.986Z,100367.17
2024-05-09T06:55:54.425Z,100374.80
2024-05-09T06:58:22.525Z,100379.06
2024-05-09T07:00:50.793Z,100379.48
2024-05-09T07:03:19.806Z,100382.98
2024-05-09T07:05:49.440Z,100379.47
2024-05-09T07:08:18.387Z,100383.80
2024-05-09T07:10:47.929Z,100370.58
2024-05-09T07:13:16.692Z,100386.69
2024-05-09T07:15:45.070Z,100383.96
2024-05-09T07:18:17.392Z,100386.17
2024-05-09T07:20:48.999Z,100381.16
2024-05-09T07:23:18.342Z,100377.91
2024-05-09T07:25:47.144Z,100385.15
2024-05-09T07:28:18.116Z,100387.58
2024-05-09T07:30:46.871Z,100386.67
2024-05-09T07:33:22.077Z,100385.26
2024-05-09T07:35:52.938Z,100386.27
2024-05-09T07:38:24.618Z,100381.08
2024-05-09T07:40:53.323Z,100380.02
2024-05-09T07:43:21.637Z,100385.99
2024-05-09T07:45:54.089Z,100382.24
2024-05-09T07:52:39.124Z,100377.17
2024-05-09T07:53:49.078Z,100381.98
2024-05-09T07:56:22.629Z,100386.90
2024-05-09T07:58:55.685Z,100385.77
2024-05-09T08:01:26.524Z,100380.71
2024-05-09T08:03:55.898Z,100389.42
2024-05-09T08:06:24.795Z,100387.16
2024-05-09T08:08:52.987Z,100384.25
2024-05-09T08:11:21.205Z,100383.38
2024-05-09T08:13:49.510Z,100374.69
2024-05-09T08:16:17.868Z,100383.90
2024-05-09T08:18:46.435Z,100378.45
2024-05-09T08:21:14.806Z,100379.60
2024-05-09T08:23:43.381Z,100381.98
2024-05-09T08:26:12.091Z,100385.12
2024-05-09T08:28:40.433Z,100382.67
2024-05-09T08:31:10.120Z,100385.23
2024-05-09T08:33:48.104Z,100383.96
2024-05-09T08:36:17.125Z,100383.41
2024-05-09T08:38:45.634Z,100381.69
2024-05-09T08:41:15.544Z,100379.48
2024-05-09T08:43:44.549Z,100379.56
2024-05-09T08:46:14.334Z,100374.69
2024-05-09T08:48:45.678Z,100375.16
2024-05-09T08:51:14.303Z,100373.23
2024-05-09T08:53:42.606Z,100375.44
2024-05-09T08:56:11.663Z,100373.39
2024-05-09T08:58:41.325Z,100373.00
2024-05-09T09:01:12.180Z,100373.84
2024-05-09T09:03:46.314Z,100371.89
2024-05-09T09:06:18.781Z,100369.52
2024-05-09T09:08:47.645Z,100366.09
2024-05-09T09:11:19.002Z,100366.14
2024-05-09T09:13:47.702Z,100366.53
2024-05-09T09:16:17.104Z,100371.84
2024-05-09T09:18:49.818Z,100372.88
2024-05-09T09:21:18.149Z,100373.67
2024-05-09T09:23:46.419Z,100378.31
2024-05-09T09:26:18.247Z,100378.54
2024-05-09T09:28:48.734Z,100371.89
2024-05-09T09:31:20.417Z,100375.09
2024-05-09T09:33:49.031Z,100366.80
2024-05-09T09:36:18.559Z,100368.86
2024-05-09T09:38:48.383Z,100363.61
2024-05-09T09:41:19.849Z,100361.39
2024-05-09T09:43:48.736Z,100358.94
2024-05-09T09:46:19.388Z,100353.98
2024-05-09T09:48:49.282Z,100356.30
2024-05-09T09:51:19.594Z,100352.69
2024-05-09T09:53:50.527Z,100346.05
2024-05-09T09:56:21.207Z,100352.04
2024-05-09T09:58:51.034Z,100350.10
2024-05-09T10:01:19.475Z,100344.63
2024-05-09T10:03:48.105Z,100336.23
2024-05-09T10:06:18.627Z,100339.45
2024-05-09T10:08:48.502Z,100341.54
2024-05-09T10:11:22.698Z,100334.44
2024-05-09T10:13:53.684Z,100328.73
2024-05-09T10:16:23.168Z,100337.06
2024-05-09T10:18:51.711Z,100333.52
2024-05-09T10:21:20.998Z,100327.20
2024-05-09T10:24:06.080Z,100323.30
2024-05-09T10:26:36.838Z,100322.74
2024-05-09T10:29:15.490Z,100326.32
2024-05-09T10:31:48.035Z,100324.09
2024-05-09T10:34:24.090Z,100325.75
2024-05-09T10:36:56.276Z,100328.40
2024-05-09T10:39:25.992Z,100332.77
2024-05-09T10:41:56.806Z,100329.15
2024-05-09T10:44:25.701Z,100327.91
2024-05-09T10:46:54.841Z,100320.75
2024-05-09T10:49:23.307Z,100317.82
2024-05-09T10:51:52.180Z,100315.99
2024-05-09T10:54:20.320Z,100312.81
2024-05-09T10:56:57.342Z,100313.85
2024-05-09T10:59:32.168Z,100317.45
2024-05-09T11:02:10.035Z,100307.91
2024-05-09T11:04:40.412Z,100309.77
2024-05-09T11:07:17.192Z,100304.41
2024-05-09T11:09:45.917Z,100311.09
2024-05-09T11:12:14.379Z,100303.62
2024-05-09T11:14:53.696Z,100301.02
2024-05-09T11:17:22.114Z,100302.09
2024-05-09T11:19:50.852Z,100302.20
2024-05-09T11:22:21.482Z,100297.57
2024-05-09T11:24:49.947Z,100299.80
2024-05-09T11:27:23.499Z,100289.63
2024-05-09T11:29:51.885Z,100282.79
2024-05-09T11:32:29.884Z,100285.89
2024-05-09T11:34:58.311Z,100292.49
2024-05-09T11:37:26.399Z,100293.33
2024-05-09T11:39:54.911Z,100281.58
2024-05-09T11:42:23.240Z,100286.94
2024-05-09T11:44:51.751Z,100292.71
2024-05-09T11:47:21.658Z,100278.16
2024-05-09T11:49:50.142Z,100270.23
2024-05-09T11:52:18.827Z,100282.59
2024-05-09T11:54:47.100Z,100283.85
2024-05-09T11:57:15.762Z,100280.48
2024-05-09T11:59:44.465Z,100279.58
2024-05-09T12:02:12.760Z,100285.31
2024-05-09T12:04:41.386Z,100281.83
2024-05-09T12:07:12.762Z,100279.37
2024-05-09T12:09:41.499Z,100277.09
2024-05-09T12:12:09.887Z,100274.02
2024-05-09T12:14:38.156Z,100271.77
2024-05-09T12:17:06.863Z,100259.15
2024-05-09T12:19:35.252Z,100262.06
2024-05-09T12:22:03.559Z,100262.61
2024-05-09T12:24:31.854Z,100257.29
2024-05-09T12:27:00.061Z,100261.34
2024-05-09T12:29:28.504Z,100259.66
2024-05-09T12:31:57.617Z,100258.17
2024-05-09T12:34:25.759Z,100248.83
2024-05-09T12:36:54.094Z,100248.34
2024-05-09T12:39:22.253Z,100243.36
2024-05-09T12:41:52.656Z,100228.91
2024-05-09T12:44:20.870Z,100231.42
2024-05-09T12:46:49.086Z,100231.64
2024-05-09T12:49:19.154Z,100229.61
2024-05-09T12:51:48.597Z,100231.23
2024-05-09T12:54:17.383Z,100229.29
2024-05-09T12:56:45.502Z,100233.72
2024-05-09T12:59:13.622Z,100229.88
2024-05-09T13:01:41.941Z,100215.77
2024-05-09T13:04:10.456Z,100229.89
2024-05-09T13:06:38.763Z,100229.98
2024-05-09T13:09:07.036Z,100225.14
2024-05-09T13:11:35.338Z,100221.98
2024-05-09T13:14:03.622Z,100224.52
2024-05-09T13:16:32.074Z,100227.06
2024-05-09T13:19:00.297Z,100217.20
2024-05-09T13:21:28.594Z,100218.94
2024-05-09T13:23:59.280Z,100216.12
2024-05-09T13:26:28.372Z,100203.78
2024-05-09T13:28:56.420Z,100208.48
2024-05-09T13:31:24.791Z,100213.32
2024-05-09T13:33:53.063Z,100210.32
2024-05-09T13:36:21.297Z,100209.27
2024-05-09T13:38:49.747Z,100201.20
2024-05-09T13:41:18.054Z,100201.62
2024-05-09T13:43:46.200Z,100201.23
2024-05-09T13:46:14.576Z,100203.14
2024-05-09T13:48:43.195Z,100198.72
2024-05-09T13:51:11.324Z,100195.84
2024-05-09T13:53:39.642Z,100190.83
2024-05-09T13:56:08.524Z,100190.30
2024-05-09T13:58:36.889Z,100192.88
2024-05-09T14:01:05.552Z,100187.98
2024-05-09T14:03:34.340Z,100174.91
2024-05-09T14:06:02.729Z,100176.52
2024-05-09T14:08:30.972Z,100180.14
2024-05-09T14:10:59.276Z,100175.39
2024-05-09T14:13:27.559Z,100178.39
2024-05-09T14:15:55.901Z,100175.04
2024-05-09T14:18:24.491Z,100171.95
2024-05-09T14:20:52.614Z,100165.42
2024-05-09T14:23:20.989Z,100162.10
2024-05-09T14:25:52.366Z,100160.48
2024-05-09T14:28:22.939Z,100162.13
2024-05-09T14:30:51.484Z,100164.09
2024-05-09T14:33:25.408Z,100161.64
2024-05-09T14:35:54.131Z,100166.28
2024-05-09T14:38:27.382Z,100168.05
2024-05-09T14:40:55.946Z,100166.30
2024-05-09T14:43:24.510Z,100167.55
2024-05-09T14:45:53.502Z,100168.25
2024-05-09T14:48:23.188Z,100167.13
2024-05-09T14:50:51.610Z,100153.95
2024-05-09T14:53:20.015Z,100163.02
2024-05-09T14:55:49.510Z,100160.28
2024-05-09T14:58:19.436Z,100157.30
2024-05-09T15:00:50.346Z,100153.45
2024-05-09T15:03:22.739Z,100139.59
2024-05-09T15:05:52.322Z,100157.70
2024-05-09T15:08:20.900Z,100154.22
2024-05-09T15:11:04.580Z,100146.10
2024-05-09T15:13:33.032Z,100150.06
2024-05-09T15:16:01.649Z,100152.34
2024-05-09T15:18:30.079Z,100149.71
2024-05-09T15:20:58.543Z,100148.34
2024-05-09T15:23:28.829Z,100152.10
2024-05-09T15:25:56.927Z,100152.69
2024-05-09T15:28:25.359Z,100150.98
2024-05-09T15:30:53.621Z,100150.99
2024-05-09T15:33:22.013Z,100145.89
2024-05-09T15:35:51.491Z,100142.58
2024-05-09T15:38:19.945Z,100147.71
2024-05-09T15:40:48.282Z,100143.48
2024-05-09T15:43:16.472Z,100145.84
2024-05-09T15:45:45.150Z,100143.20
2024-05-09T15:48:14.296Z,100140.60
2024-05-09T15:50:43.085Z,100141.64
2024-05-09T15:53:13.388Z,100133.98
2024-05-09T15:55:43.179Z,100141.56
2024-05-09T15:58:12.238Z,100139.20
2024-05-09T16:00:44.202Z,100140.44
2024-05-09T16:03:14.863Z,100141.85
2024-05-09T16:05:45.527Z,100150.63
2024-05-09T16:08:15.850Z,100154.70
2024-05-09T16:10:47.913Z,100154.98
2024-05-09T16:13:17.554Z,100151.89
2024-05-09T16:15:46.423Z,100146.59
2024-05-09T16:18:14.826Z,100143.88
2024-05-09T16:20:44.941Z,100154.94
2024-05-09T16:23:15.020Z,100155.45
2024-05-09T16:25:46.027Z,100146.83
2024-05-09T16:28:14.278Z,100152.49
2024-05-09T16:30:42.736Z,100150.05
2024-05-09T16:33:11.971Z,100151.98
2024-05-09T16:35:40.875Z,100155.21
2024-05-09T16:38:09.015Z,100156.71
2024-05-09T16:40:40.439Z,100159.05
2024-05-09T16:43:12.016Z,100160.77
2024-05-09T16:45:44.109Z,100160.21
2024-05-09T16:48:13.199Z,100160.58
2024-05-09T16:50:41.719Z,100161.06
2024-05-09T16:53:09.824Z,100163.60
2024-05-09T16:55:38.628Z,100165.95
2024-05-09T16:58:08.441Z,100167.04
2024-05-09T17:00:41.946Z,100170.38
2024-05-09T17:03:15.083Z,100167.79
2024-05-09T17:05:46.864Z,100173.00
2024-05-09T17:08:19.893Z,100175.74
2024-05-09T17:10:49.532Z,100178.52
2024-05-09T17:13:19.198Z,100179.81
2024-05-09T17:15:49.235Z,100178.45
2024-05-09T17:18:18.015Z,100183.37
2024-05-09T17:20:46.315Z,100181.92
2024-05-09T17:23:14.815Z,100181.88
2024-05-09T17:25:43.509Z,100177.73
2024-05-09T17:28:12.473Z,100172.94
2024-05-09T17:30:42.571Z,100183.30
2024-05-09T17:33:12.749Z,100187.96
2024-05-09T17:35:41.885Z,100189.92
2024-05-09T17:38:10.106Z,100187.09
2024-05-09T17:40:39.209Z,100191.07
2024-05-09T17:43:10.419Z,100183.64
2024-05-09T17:45:40.973Z,100184.13
2024-05-09T17:48:11.660Z,100196.34
2024-05-09T17:50:41.860Z,100196.11
2024-05-09T17:53:11.061Z,100191.98
2024-05-09T17:55:40.539Z,100197.61
2024-05-09T17:58:09.864Z,100201.14
2024-05-09T18:00:41.216Z,100206.14
2024-05-09T18:03:11.951Z,100197.82
2024-05-09T18:05:43.957Z,100206.90
2024-05-09T18:08:13.536Z,100210.44
2024-05-09T18:10:42.771Z,100208.08
2024-05-09T18:13:12.274Z,100209.90
2024-05-09T18:15:41.784Z,100211.58
2024-05-09T18:18:11.324Z,100212.56
2024-05-09T18:20:44.199Z,100213.95
2024-05-09T18:23:18.532Z,100218.64
2024-05-09T18:25:48.105Z,100221.24
2024-05-09T18:28:17.337Z,100225.26
2024-05-09T18:30:46.491Z,100222.01
2024-05-09T18:33:15.671Z,100228.48
2024-05-09T18:35:45.419Z,100233.73
2024-05-09T18:38:13.934Z,100236.52
2024-05-09T18:40:44.773Z,100238.08
2024-05-09T18:43:15.244Z,100236.16
2024-05-09T18:45:43.618Z,100237.11
2024-05-09T18:48:12.250Z,100238.63
2024-05-09T18:50:41.552Z,100242.39
2024-05-09T18:53:12.348Z,100243.90
2024-05-09T18:55:42.384Z,100240.25
2024-05-09T18:58:11.201Z,100246.73
2024-05-09T19:00:41.763Z,100253.73
2024-05-09T19:03:14.518Z,100255.45
2024-05-09T19:05:45.264Z,100257.06
2024-05-09T19:08:15.447Z,100255.58
2024-05-09T19:10:45.617Z,100256.05
2024-05-09T19:13:14.893Z,100260.46
2024-05-09T19:15:44.135Z,100255.57
2024-05-09T19:18:14.108Z,100266.52
2024-05-09T19:20:44.160Z,100269.23
2024-05-09T19:23:12.709Z,100268.84
2024-05-09T19:25:40.902Z,100265.09
2024-05-09T19:28:11.215Z,100273.89
2024-05-09T19:30:42.034Z,100282.46
2024-05-09T19:33:13.192Z,100274.42
2024-05-09T19:35:43.282Z,100275.60
2024-05-09T19:38:12.313Z,100284.36
2024-05-09T19:40:41.440Z,100285.45
2024-05-09T19:43:10.320Z,100286.77
2024-05-09T19:45:38.584Z,100291.58
2024-05-09T19:48:07.555Z,100295.38
2024-05-09T19:50:41.551Z,100297.22
2024-05-09T19:53:14.634Z,100297.08
2024-05-09T19:55:43.613Z,100296.08
2024-05-09T19:58:12.851Z,100296.92
2024-05-09T20:00:43.524Z,100292.34
2024-05-09T20:03:14.989Z,100300.32
2024-05-09T20:05:46.707Z,100298.05
2024-05-09T20:08:15.422Z,100297.69
2024-05-09T20:10:43.685Z,100299.27
2024-05-09T20:13:11.996Z,100294.10
2024-05-09T20:15:40.283Z,100297.02
2024-05-09T20:18:08.548Z,100298.80
2024-05-09T20:20:40.522Z,100299.25
2024-05-09T20:23:12.362Z,100297.46
2024-05-09T20:25:42.069Z,100294.99
2024-05-09T20:28:11.083Z,100302.94
2024-05-09T20:30:39.489Z,100300.59
2024-05-09T20:33:09.024Z,100297.80
2024-05-09T20:35:38.372Z,100299.43
2024-05-09T20:38:06.925Z,100285.27
2024-05-09T20:40:38.120Z,100297.72
2024-05-09T20:43:09.746Z,100297.98
2024-05-09T20:45:39.532Z,100298.65
2024-05-09T20:48:09.751Z,100302.66
2024-05-09T20:50:41.227Z,100304.92
2024-05-09T20:53:13.806Z,100296.56
2024-05-09T20:55:44.627Z,100299.17
2024-05-09T20:58:14.043Z,100295.27
2024-05-09T21:00:45.309Z,100295.67
2024-05-09T21:03:16.852Z,100300.93
2024-05-09T21:05:47.957Z,100300.71
2024-05-09T21:08:17.021Z,100294.23
2024-05-09T21:10:45.324Z,100290.19
2024-05-09T21:13:13.744Z,100285.94
2024-05-09T21:15:41.925Z,100296.16
2024-05-09T21:18:10.302Z,100297.48
2024-05-09T21:20:38.402Z,100308.27
2024-05-09T21:23:06.466Z,100304.85
2024-05-09T21:25:34.623Z,100306.33
2024-05-09T21:28:03.027Z,100306.24
2024-05-09T21:30:38.883Z,100307.49
2024-05-09T21:33:13.529Z,100305.98
2024-05-09T21:35:44.193Z,100303.70
2024-05-09T21:38:14.550Z,100313.29
2024-05-09T21:40:44.134Z,100315.16
2024-05-09T21:43:12.699Z,100314.45
2024-05-09T21:45:41.271Z,100317.87
2024-05-09T22:04:37.556Z,100324.35
2024-05-09T22:07:06.767Z,100320.61
2024-05-09T22:09:35.796Z,100326.92
2024-05-09T22:12:04.709Z,100325.66
2024-05-09T22:14:32.912Z,100327.79
2024-05-09T22:17:00.999Z,100322.80
2024-05-09T22:19:29.820Z,100323.44
2024-05-09T22:21:58.102Z,100320.16
2024-05-09T22:24:26.395Z,100324.71
2024-05-09T22:26:55.200Z,100325.84
2024-05-09T22:29:23.646Z,100323.23
2024-05-09T22:31:51.968Z,100329.52
2024-05-09T22:34:20.145Z,100323.02
2024-05-09T22:36:48.281Z,100330.33
2024-05-09T22:39:17.644Z,100327.35
2024-05-09T22:41:45.817Z,100329.41
2024-05-09T22:44:14.106Z,100323.66
2024-05-09T22:46:42.275Z,100326.27
2024-05-09T22:49:10.576Z,100324.16
2024-05-09T22:51:38.740Z,100314.45
2024-05-09T22:54:07.649Z,100323.84
2024-05-09T22:56:35.843Z,100322.75
2024-05-09T22:59:04.202Z,100316.90
2024-05-09T23:01:32.523Z,100327.00
2024-05-09T23:04:02.509Z,100323.26
2024-05-09T23:06:31.863Z,100314.48
2024-05-09T23:09:00.044Z,100321.89
2024-05-09T23:11:28.337Z,100313.77
2024-05-09T23:13:56.511Z,100314.48
2024-05-09T23:16:24.968Z,100319.83
2024-05-09T23:18:53.276Z,100320.46
2024-05-09T23:21:21.598Z,100318.95
2024-05-09T23:23:49.847Z,100315.30
2024-05-09T23:26:18.035Z,100319.45
2024-05-09T23:28:48.250Z,100319.57
2024-05-09T23:31:16.376Z,100319.63
2024-05-09T23:33:47.435Z,100320.86
2024-05-09T23:36:15.809Z,100317.83
2024-05-09T23:38:44.059Z,100320.59
2024-05-09T23:41:12.244Z,100319.14
2024-05-09T23:43:40.639Z,100323.84
2024-05-09T23:46:09.218Z,100316.75
2024-05-09T23:48:37.773Z,100322.41
2024-05-09T23:51:06.149Z,100320.48
2024-05-09T23:53:34.314Z,100322.95
2024-05-09T23:56:02.474Z,100324.89
2024-05-09T23:58:31.431Z,100323.41
